METAR Data
IDs: Format: Raw Decoded Include TAF

Data at: 2141 UTC 24 Mar 2019

KPEZ 242135Z AUTO 14005KT 10SM BKN038 26/17 A3000 RMK AO2 T02620174
KPEZ 242115Z AUTO 13007KT 090V150 10SM BKN034 28/18 A3001 RMK AO2 T02770183
KPEZ 242055Z AUTO 19007KT 10SM SCT034 27/18 A3001 RMK AO2 T02660179
KPEZ 242035Z AUTO 17008KT 10SM BKN032 26/18 A3002 RMK AO2 T02570179
KPEZ 242015Z AUTO 15005KT 10SM BKN030 BKN035 25/18 A3003 RMK AO2 T02540178
KPEZ 241955Z AUTO 13004KT 10SM BKN028 BKN033 25/18 A3004 RMK AO2 T02490176
KPEZ 241935Z AUTO 19007KT 10SM OVC026 25/18 A3005 RMK AO2 T02480177
KPEZ 241915Z AUTO 15008KT 10SM OVC026 24/18 A3006 RMK AO2 T02410178
KPEZ 241855Z AUTO 15006KT 10SM BKN026 OVC031 24/18 A3007 RMK AO2 T02370176
KPEZ 241835Z AUTO 17005KT 10SM OVC030 24/18 A3007 RMK AO2 T02400175
KPEZ 241815Z AUTO 19008KT 10SM OVC030 24/18 A3008 RMK AO2 T02410175
KPEZ 241755Z AUTO 19010KT 10SM OVC028 24/18 A3008 RMK AO2 T02390176 10243 20182
KPEZ 241735Z AUTO 19009KT 10SM OVC026 24/18 A3009 RMK AO2 T02430178
KPEZ 241715Z AUTO 20008KT 10SM OVC024 24/17 A3009 RMK AO2 T02350171
KPEZ 241655Z AUTO 17009G15KT 10SM OVC022 23/17 A3009 RMK AO2 T02330173
KPEZ 241635Z AUTO 18006KT 10SM OVC020 23/18 A3010 RMK AO2 T02310177
KPEZ 241615Z AUTO 19008KT 10SM BKN017 BKN023 23/18 A3011 RMK AO2 T02250178
KPEZ 241555Z AUTO 18007KT 10SM BKN014 BKN019 BKN026 21/17 A3011 RMK AO2 T02120174
KPEZ 241535Z AUTO 18008KT 10SM BKN012 OVC026 21/18 A3011 RMK AO2 T02080175
KPEZ 241515Z AUTO 15008KT 10SM OVC012 21/18 A3011 RMK AO2 T02060177
KPEZ 241455Z AUTO 17005KT 10SM BKN009 OVC012 20/18 A3011 RMK AO2 T02000176
KPEZ 241435Z AUTO 16006KT 10SM BKN007 OVC012 20/18 A3011 RMK AO2 T01950175
KPEZ 241415Z AUTO 17005KT 10SM OVC007 19/18 A3010 RMK AO2 T01900175
KPEZ 241355Z AUTO 15006KT 10SM OVC007 19/17 A3010 RMK AO2 T01870173
KPEZ 241335Z AUTO 13004KT 10SM BKN007 OVC010 19/17 A3009 RMK AO2 T01850171
KPEZ 241315Z AUTO 14003KT 10SM BKN007 OVC011 19/17 A3008 RMK AO2 T01850170
KPEZ 241255Z AUTO 14003KT 10SM SCT007 BKN013 OVC020 18/17 A3008 RMK AO2 T01830170
KPEZ 241235Z AUTO 14004KT 10SM OVC015 18/17 A3007 RMK AO2 T01820170
KPEZ 241215Z AUTO 14006KT 10SM SCT009 OVC017 18/17 A3007 RMK AO2 T01830170
KPEZ 241155Z AUTO 14005KT 10SM BKN011 OVC017 19/17 A3007 RMK AO2 T01850170 10196 20185
KPEZ 241135Z AUTO 14003KT 10SM BKN011 OVC017 19/17 A3007 RMK AO2 T01850169
KPEZ 241115Z AUTO 12003KT 10SM SCT011 OVC017 19/17 A3006 RMK AO2 T01850168
KPEZ 241055Z AUTO 14005KT 10SM SCT012 OVC018 19/17 A3006 RMK AO2 T01850168
KPEZ 241035Z AUTO 14005KT 10SM OVC018 19/17 A3005 RMK AO2 T01850167
KPEZ 241015Z AUTO 13006KT 10SM OVC018 19/17 A3005 RMK AO2 T01850167
KPEZ 240955Z AUTO 14006KT 10SM OVC016 19/17 A3005 RMK AO2 T01860167
KPEZ 240935Z AUTO 14006KT 10SM OVC014 19/17 A3004 RMK AO2 T01870167
KPEZ 240915Z AUTO 13006KT 10SM BKN012 OVC018 19/17 A3005 RMK AO2 T01870167
KPEZ 240855Z AUTO 13005KT 10SM OVC012 19/17 A3005 RMK AO2 T01880168
KPEZ 240835Z AUTO 14007KT 10SM OVC012 19/17 A3004 RMK AO2 T01900168
KPEZ 240815Z AUTO 14005KT 10SM OVC010 19/17 A3004 RMK AO2 T01910168
KPEZ 240755Z AUTO 15007KT 10SM OVC012 19/17 A3005 RMK AO2 T01930169
KPEZ 240735Z AUTO 15006KT 10SM OVC014 20/17 A3005 RMK AO2 T01950168
KPEZ 240715Z AUTO 16007KT 10SM OVC016 20/17 A3006 RMK AO2 T01950167
KPEZ 240655Z AUTO 16006KT 10SM SCT016 SCT028 OVC042 19/17 A3006 RMK AO2 T01930166
KPEZ 240635Z AUTO 15007KT 10SM OVC042 20/17 A3006 RMK AO2 T01950166
KPEZ 240615Z AUTO 15006KT 10SM OVC042 20/17 A3007 RMK AO2 T01950165
KPEZ 240555Z AUTO 15008KT 10SM BKN042 OVC050 20/17 A3006 RMK AO2 T01960165 10216 20195 402450155
KPEZ 240535Z AUTO 15010KT 10SM OVC050 20/17 A3007 RMK AO2 T01950165
KPEZ 240515Z AUTO 16008KT 10SM OVC060 20/17 A3007 RMK AO2 T01950165
KPEZ 240455Z AUTO 14008KT 10SM BKN060 20/17 A3008 RMK AO2 T01960165
KPEZ 240435Z AUTO 14007KT 10SM SCT035 BKN060 20/16 A3008 RMK AO2 T01950163
KPEZ 240415Z AUTO 15007KT 10SM BKN035 OVC060 20/16 A3008 RMK AO2 T01980164
KPEZ 240355Z AUTO 14008G14KT 10SM SCT019 OVC035 20/16 A3008 RMK AO2 T02000164
KPEZ 240335Z AUTO 14007KT 10SM SCT021 OVC033 20/16 A3008 RMK AO2 T02000163
KPEZ 240315Z AUTO 13007KT 10SM BKN023 OVC033 20/16 A3008 RMK AO2 T02010163
KPEZ 240255Z AUTO 14009KT 10SM BKN021 OVC028 20/16 A3008 RMK AO2 T02030163
KPEZ 240235Z AUTO 13006G15KT 10SM OVC023 21/16 A3008 RMK AO2 T02050162
KPEZ 240215Z AUTO 14009KT 10SM OVC023 21/16 A3007 RMK AO2 T02060161
KPEZ 240155Z AUTO 14009G14KT 10SM OVC025 21/16 A3005 RMK AO2 T02070160
KPEZ 240135Z AUTO 13009KT 10SM OVC025 21/16 A3005 RMK AO2 T02090160
KPEZ 240115Z AUTO 13009KT 10SM OVC025 21/16 A3003 RMK AO2 T02110160
KPEZ 240055Z AUTO 14008G15KT 10SM OVC027 21/16 A3003 RMK AO2 T02120160
KPEZ 240035Z AUTO 13012G16KT 10SM OVC029 22/16 A3003 RMK AO2 T02150161
KPEZ 240015Z AUTO 13011G16KT 10SM BKN025 OVC034 22/16 A3002 RMK AO2 T02150162
KPEZ 232355Z AUTO 13011G18KT 10SM SCT025 BKN034 BKN050 22/16 A3002 RMK AO2 T02170163 10245 20205
KPEZ 232335Z AUTO 14013G17KT 10SM SCT023 SCT033 SCT050 22/17 A3001 RMK AO2 T02210166
KPEZ 232315Z AUTO 14013G18KT 10SM SCT039 SCT045 SCT070 23/17 A3000 RMK AO2 T02280167
KPEZ 232255Z AUTO 13011G16KT 10SM SCT026 SCT035 OVC041 23/17 A3001 RMK AO2 T02260168
KPEZ 232235Z AUTO 14007KT 10SM SCT024 BKN041 OVC070 23/17 A3002 RMK AO2 T02270170
KPEZ 232215Z AUTO 14011G16KT 10SM SCT028 SCT037 OVC070 23/17 A3002 RMK AO2 T02290167
KPEZ 232155Z AUTO 13011G15KT 10SM SCT029 BKN043 OVC070 23/17 A3002 RMK AO2 T02310171
KPEZ 232135Z AUTO 12011G16KT 10SM SCT027 BKN045 OVC070 24/17 A3002 RMK AO2 T02370167
KPEZ 232115Z AUTO 14009KT 10SM SCT027 SCT045 BKN060 24/17 A3002 RMK AO2 T02420171
KPEZ 232055Z AUTO 16008KT 10SM SCT027 BKN055 OVC075 24/17 A3003 RMK AO2 T02350171
KPEZ 232035Z AUTO 19004KT 10SM SCT035 OVC049 22/17 A3004 RMK AO2 T02200171
KPEZ 232015Z AUTO 18003KT 10SM SCT025 OVC033 21/17 A3005 RMK AO2 T02060173
KPEZ 231955Z AUTO 18007KT 10SM -RA BKN028 OVC039 22/17 A3006 RMK AO2 T02160167
KPEZ 231935Z AUTO 22005KT 10SM SCT034 BKN041 OVC060 23/17 A3005 RMK AO2 T02260165
KPEZ 231915Z AUTO 18006KT 10SM BKN033 OVC041 22/17 A3006 RMK AO2 T02220166
KPEZ 231855Z AUTO 20004KT 10SM BKN034 OVC041 22/17 A3007 RMK AO2 T02150165
KPEZ 231835Z AUTO 22005KT 10SM BKN034 OVC044 22/16 A3007 RMK AO2 T02180162
KPEZ 231815Z AUTO 21006KT 10SM OVC034 22/16 A3008 RMK AO2 T02200157
KPEZ 231755Z AUTO 20005KT 10SM OVC031 22/16 A3008 RMK AO2 T02190157 10232 20161
KPEZ 231735Z AUTO 19007KT 10SM BKN031 OVC040 22/16 A3008 RMK AO2 T02200156
KPEZ 231715Z AUTO 17010KT 10SM SCT027 BKN041 OVC065 23/16 A3008 RMK AO2 T02290160
KPEZ 231655Z AUTO 16009G17KT 10SM SCT024 BKN033 OVC065 23/17 A3008 RMK AO2 T02290165
KPEZ 231635Z AUTO 16010KT 10SM SCT021 BKN038 OVC044 21/16 A3009 RMK AO2 T02140160
KPEZ 231615Z AUTO 16010KT 10SM OVC038 21/16 A3009 RMK AO2 T02060157
KPEZ 231555Z AUTO 15009KT 10SM OVC040 20/16 A3008 RMK AO2 T02020158
KPEZ 231535Z AUTO 14007KT 10SM BKN040 OVC065 19/16 A3009 RMK AO2 T01930157
KPEZ 231515Z AUTO 13004KT 10SM OVC038 19/16 A3010 RMK AO2 T01870155
KPEZ 231455Z AUTO 13004KT 10SM OVC034 18/15 A3010 RMK AO2 LTG DSNT N T01790148
KPEZ 231435Z AUTO 11003KT 10SM OVC034 18/15 A3010 RMK AO2 T01750147
KPEZ 231415Z AUTO 00000KT 10SM OVC032 18/15 A3010 RMK AO2 T01750146
KPEZ 231355Z AUTO 00000KT 10SM BKN033 OVC038 17/14 A3009 RMK AO2 T01710143
KPEZ 231335Z AUTO 00000KT 10SM BKN033 OVC050 17/14 A3008 RMK AO2 T01700144
KPEZ 231315Z AUTO 00000KT 10SM OVC050 17/14 A3007 RMK AO2 T01670141
KPEZ 231255Z AUTO 00000KT 10SM OVC050 17/14 A3006 RMK AO2 T01650138
KPEZ 231235Z AUTO 00000KT 10SM OVC050 16/14 A3006 RMK AO2 T01620137
KPEZ 231215Z AUTO 00000KT 10SM OVC048 16/14 A3005 RMK AO2 T01620137
KPEZ 231155Z AUTO 00000KT 10SM OVC048 16/14 A3004 RMK AO2 T01620136 10181 20155
KPEZ 231135Z AUTO 00000KT 10SM SCT048 BKN070 16/13 A3003 RMK AO2 T01570132
KPEZ 231115Z AUTO 00000KT 10SM OVC070 16/13 A3002 RMK AO2 T01600133
KPEZ 231055Z AUTO 10003KT 10SM BKN070 16/13 A3001 RMK AO2 T01580132
KPEZ 231035Z AUTO 12003KT 10SM BKN070 16/13 A3001 RMK AO2 T01620132
KPEZ 231015Z AUTO 14005KT 10SM CLR 17/13 A3000 RMK AO2 T01650131
KPEZ 230955Z AUTO 13006KT 10SM SCT075 17/13 A2999 RMK AO2 T01650130